Time;durP1;ratioP1;P1;durP2;ratioP2;P2;SDS_P1;SDS_P2;PMS_P1;PMS_P2;Temp;Humidity;BMP_temperature;BMP_pressure;BME280_temperature;BME280_humidity;BME280_pressure;Samples;Min_cycle;Max_cycle;Signal;HPM_P1;HPM_P2
2021/03/01 00:00:46;;;;;;;34.78;21.05;;;4.90;98.40;;;;;;2018216;29;20037;-72
2021/03/01 00:01:46;;;;;;;39.17;21.48;;;4.90;98.30;;;;;;2018567;29;20064;-72
2021/03/01 00:02:47;;;;;;;36.35;21.15;;;5.00;98.10;;;;;;2017935;29;20142;-71
2021/03/01 00:03:48;;;;;;;33.58;20.58;;;4.90;98.00;;;;;;2017992;29;20060;-72
2021/03/01 00:04:49;;;;;;;34.22;19.85;;;4.90;98.00;;;;;;2026463;29;20715;-72
2021/03/01 00:05:50;;;;;;;33.97;20.08;;;4.90;98.00;;;;;;2026350;29;20084;-72
2021/03/01 00:06:51;;;;;;;33.60;19.92;;;5.00;97.90;;;;;;2025315;29;20115;-71
2021/03/01 00:07:51;;;;;;;31.98;19.67;;;5.00;97.80;;;;;;2025693;29;20032;-71
2021/03/01 00:08:52;;;;;;;33.60;20.33;;;5.00;97.50;;;;;;2026162;29;20392;-71
2021/03/01 00:09:52;;;;;;;33.75;19.80;;;4.90;97.50;;;;;;2026405;29;20033;-72
2021/03/01 00:10:53;;;;;;;33.45;19.52;;;4.90;97.70;;;;;;2026285;29;20057;-72
2021/03/01 00:11:54;;;;;;;33.45;19.38;;;5.00;97.70;;;;;;2026283;29;20072;-73
2021/03/01 00:12:54;;;;;;;34.00;19.42;;;4.90;97.60;;;;;;2026278;29;20071;-72
2021/03/01 00:13:55;;;;;;;33.33;19.90;;;4.90;97.70;;;;;;2018086;29;20089;-73
2021/03/01 00:14:55;;;;;;;31.38;19.45;;;5.00;97.60;;;;;;2017957;29;20040;-73
2021/03/01 00:15:56;;;;;;;31.73;19.40;;;4.90;97.60;;;;;;2026447;29;20035;-72
2021/03/01 00:16:57;;;;;;;32.50;19.60;;;4.90;97.70;;;;;;2025915;29;20073;-72
2021/03/01 00:17:57;;;;;;;33.42;19.50;;;4.90;97.80;;;;;;2026584;29;20388;-72
2021/03/01 00:18:58;;;;;;;33.08;19.60;;;4.90;97.80;;;;;;2026349;29;20086;-72
2021/03/01 00:19:58;;;;;;;31.92;19.15;;;4.90;97.90;;;;;;2026013;29;20064;-72
2021/03/01 00:20:59;;;;;;;32.88;19.13;;;4.90;97.70;;;;;;2026413;29;20065;-73
2021/03/01 00:22:00;;;;;;;31.67;19.15;;;5.00;97.60;;;;;;2018195;29;20033;-73
2021/03/01 00:23:00;;;;;;;32.15;19.35;;;4.90;97.60;;;;;;2017977;29;20043;-73
2021/03/01 00:24:01;;;;;;;34.25;19.27;;;4.90;97.60;;;;;;2025773;29;20354;-73
2021/03/01 00:25:03;;;;;;;29.90;18.15;;;4.90;97.80;;;;;;2025752;29;20047;-72
2021/03/01 00:26:03;;;;;;;31.88;18.05;;;4.80;97.90;;;;;;2026410;29;20066;-73
2021/03/01 00:27:04;;;;;;;32.40;19.77;;;4.80;98.00;;;;;;2025742;29;20481;-73
2021/03/01 00:28:06;;;;;;;31.85;18.83;;;4.90;98.10;;;;;;2026459;29;20042;-72
2021/03/01 00:29:07;;;;;;;31.33;18.60;;;4.90;97.90;;;;;;2026158;29;20040;-72
2021/03/01 00:30:10;;;;;;;30.20;18.65;;;4.90;97.80;;;;;;2025368;29;20032;-72
2021/03/01 00:31:10;;;;;;;30.08;18.55;;;4.90;97.80;;;;;;2025116;29;20068;-72
2021/03/01 00:32:11;;;;;;;29.80;17.85;;;4.90;97.90;;;;;;2017654;29;20065;-73
2021/03/01 00:33:12;;;;;;;29.05;17.92;;;4.90;97.90;;;;;;2025687;29;20032;-72
2021/03/01 00:34:13;;;;;;;31.50;18.83;;;4.90;97.80;;;;;;2026516;29;20041;-72
2021/03/01 00:35:13;;;;;;;29.92;18.92;;;4.90;97.60;;;;;;2026394;29;20041;-73
2021/03/01 00:36:14;;;;;;;32.00;19.33;;;4.80;97.70;;;;;;2017784;29;20052;-73
2021/03/01 00:37:15;;;;;;;31.15;18.63;;;4.80;97.80;;;;;;2017998;29;20033;-72
2021/03/01 00:38:18;;;;;;;28.85;17.80;;;4.70;98.00;;;;;;2025631;29;20524;-73
2021/03/01 00:39:19;;;;;;;28.77;18.23;;;4.70;98.00;;;;;;2025800;29;20120;-73
2021/03/01 00:40:19;;;;;;;29.35;17.83;;;4.80;98.00;;;;;;2026129;29;20027;-73
2021/03/01 00:41:20;;;;;;;32.67;19.40;;;4.80;98.30;;;;;;2026132;29;20056;-73
2021/03/01 00:42:21;;;;;;;30.40;18.55;;;4.70;97.80;;;;;;2026341;29;20421;-72
2021/03/01 00:43:21;;;;;;;30.70;18.02;;;4.70;98.00;;;;;;2026209;29;20028;-72
2021/03/01 00:44:22;;;;;;;30.30;17.73;;;4.70;98.00;;;;;;2017729;29;20029;-73
2021/03/01 00:45:23;;;;;;;29.38;17.33;;;4.80;98.00;;;;;;2017886;29;20068;-73
2021/03/01 00:46:23;;;;;;;28.90;17.45;;;4.80;97.90;;;;;;2025717;29;20028;-72
2021/03/01 00:47:24;;;;;;;25.45;16.30;;;4.80;97.70;;;;;;2017070;29;20149;-72
2021/03/01 00:48:25;;;;;;;26.15;17.27;;;4.90;97.60;;;;;;2017953;29;20112;-73
2021/03/01 00:49:26;;;;;;;26.55;16.73;;;4.80;97.50;;;;;;2024943;29;20076;-72
2021/03/01 00:50:26;;;;;;;28.10;17.88;;;4.80;97.50;;;;;;2025639;29;20100;-73
2021/03/01 00:51:27;;;;;;;28.35;16.95;;;4.80;97.40;;;;;;2026326;29;20044;-72
2021/03/01 00:52:28;;;;;;;25.77;16.02;;;4.70;97.20;;;;;;2026255;29;20040;-72
2021/03/01 00:53:29;;;;;;;25.00;15.68;;;4.80;97.40;;;;;;2018106;29;20033;-72
2021/03/01 00:54:29;;;;;;;26.52;16.15;;;4.70;97.30;;;;;;2010892;29;20034;-72
2021/03/01 00:55:30;;;;;;;25.65;15.95;;;4.80;97.40;;;;;;2018040;29;20117;-73
2021/03/01 00:56:32;;;;;;;24.90;15.63;;;4.80;97.40;;;;;;2017425;29;20043;-72
2021/03/01 00:57:33;;;;;;;24.05;15.13;;;4.80;97.30;;;;;;2018667;29;20025;-72
2021/03/01 00:58:35;;;;;;;26.10;16.02;;;4.80;97.30;;;;;;2019406;29;20025;-72
2021/03/01 00:59:45;;;;;;;23.80;15.30;;;4.80;97.20;;;;;;2013148;29;20841;-72
2021/03/01 01:00:48;;;;;;;23.67;14.63;;;4.80;97.00;;;;;;2005457;29;20030;-72
2021/03/01 01:01:48;;;;;;;21.90;14.63;;;4.70;97.00;;;;;;2011839;29;20063;-70
2021/03/01 01:02:49;;;;;;;23.52;15.02;;;4.70;97.10;;;;;;2011136;29;20037;-72
2021/03/01 01:04:04;;;;;;;23.45;14.15;;;4.70;97.20;;;;;;2013821;29;20768;-69
2021/03/01 01:05:07;;;;;;;23.42;14.80;;;4.70;97.10;;;;;;2017620;29;20210;-71
2021/03/01 01:06:07;;;;;;;23.13;14.02;;;4.70;97.10;;;;;;2017655;29;20029;-70
2021/03/01 01:07:08;;;;;;;20.65;14.05;;;4.70;97.00;;;;;;2017188;29;20029;-71
2021/03/01 01:08:09;;;;;;;20.50;14.05;;;4.70;97.00;;;;;;2017840;29;20103;-70
2021/03/01 01:09:10;;;;;;;22.58;14.73;;;4.70;97.20;;;;;;2025180;29;20071;-70
2021/03/01 01:10:11;;;;;;;22.23;14.25;;;4.70;96.80;;;;;;2025415;29;20063;-70
2021/03/01 01:11:12;;;;;;;20.25;13.82;;;4.60;96.90;;;;;;2025976;29;20425;-70
2021/03/01 01:12:12;;;;;;;20.25;13.25;;;4.60;97.00;;;;;;2026246;29;20393;-71
2021/03/01 01:13:13;;;;;;;20.80;13.80;;;4.60;97.10;;;;;;2026487;29;20024;-72
2021/03/01 01:14:14;;;;;;;20.55;13.70;;;4.60;97.00;;;;;;2026484;29;20079;-70
2021/03/01 01:15:16;;;;;;;20.70;13.27;;;4.60;97.10;;;;;;2026008;29;20492;-70
2021/03/01 01:16:16;;;;;;;21.60;13.75;;;4.50;97.10;;;;;;2025609;29;20035;-71
2021/03/01 01:17:17;;;;;;;20.35;13.52;;;4.50;97.10;;;;;;2025002;29;20067;-71
2021/03/01 01:18:18;;;;;;;21.42;13.60;;;4.50;97.10;;;;;;2026367;29;20060;-71
2021/03/01 01:19:18;;;;;;;20.50;13.18;;;4.50;97.10;;;;;;2025439;29;20024;-71
2021/03/01 01:20:19;;;;;;;24.48;14.98;;;4.50;97.20;;;;;;2025871;29;20523;-71
2021/03/01 01:21:20;;;;;;;22.23;13.73;;;4.50;97.20;;;;;;2025975;29;20032;-70
2021/03/01 01:22:20;;;;;;;23.60;13.95;;;4.50;97.30;;;;;;2026369;29;20060;-70
2021/03/01 01:23:21;;;;;;;21.13;13.40;;;4.40;97.40;;;;;;2017991;29;20029;-71
2021/03/01 01:24:22;;;;;;;24.05;14.75;;;4.40;97.40;;;;;;2018637;29;20081;-71
2021/03/01 01:25:23;;;;;;;22.50;13.93;;;4.40;97.30;;;;;;2026836;29;20033;-72
2021/03/01 01:26:23;;;;;;;20.85;13.70;;;4.30;97.50;;;;;;2025765;29;20047;-69
2021/03/01 01:27:24;;;;;;;22.08;13.88;;;4.30;97.70;;;;;;2016858;29;20040;-69
2021/03/01 01:28:24;;;;;;;20.52;13.25;;;4.30;97.70;;;;;;2017851;29;20434;-71
2021/03/01 01:29:25;;;;;;;21.00;13.95;;;4.30;97.60;;;;;;2024687;29;20041;-70
2021/03/01 01:30:26;;;;;;;21.02;13.40;;;4.30;97.60;;;;;;2025511;29;20500;-70
2021/03/01 01:31:27;;;;;;;21.20;13.40;;;4.30;97.60;;;;;;2025814;29;20049;-70
2021/03/01 01:32:27;;;;;;;22.13;14.27;;;4.30;97.40;;;;;;2025052;29;20524;-70
2021/03/01 01:33:28;;;;;;;21.95;13.88;;;4.30;97.50;;;;;;2025039;29;20040;-70
2021/03/01 01:34:29;;;;;;;21.60;13.40;;;4.30;97.50;;;;;;2025743;29;20036;-70
2021/03/01 01:35:30;;;;;;;22.40;13.85;;;4.30;97.70;;;;;;2025572;29;20031;-74
2021/03/01 01:36:30;;;;;;;22.77;14.52;;;4.30;97.70;;;;;;2025218;29;20032;-71
2021/03/01 01:37:31;;;;;;;23.20;14.45;;;4.20;97.80;;;;;;2017388;29;20029;-70
2021/03/01 01:38:32;;;;;;;22.13;14.07;;;4.30;97.90;;;;;;2017405;29;20426;-70
2021/03/01 01:39:32;;;;;;;19.98;13.05;;;4.30;97.70;;;;;;2025236;29;20527;-71
2021/03/01 01:40:34;;;;;;;22.58;14.25;;;4.30;97.70;;;;;;2025617;29;20388;-70
2021/03/01 01:41:34;;;;;;;20.50;13.40;;;4.40;97.60;;;;;;2024905;29;20032;-71
2021/03/01 01:42:35;;;;;;;20.77;13.55;;;4.40;97.50;;;;;;2025185;29;20031;-70
2021/03/01 01:43:36;;;;;;;20.45;13.63;;;4.40;97.50;;;;;;2025541;29;20485;-70
2021/03/01 01:44:36;;;;;;;21.30;13.43;;;4.40;97.40;;;;;;2025556;29;20393;-71
2021/03/01 01:45:37;;;;;;;21.65;13.88;;;4.40;97.50;;;;;;2025453;29;20568;-70
2021/03/01 01:46:37;;;;;;;23.33;13.63;;;4.40;97.50;;;;;;2016789;29;20099;-70
2021/03/01 01:47:39;;;;;;;20.17;13.15;;;4.40;97.40;;;;;;2017154;29;20037;-70
2021/03/01 01:48:40;;;;;;;22.92;13.80;;;4.40;97.50;;;;;;2025053;29;20373;-70
2021/03/01 01:49:40;;;;;;;21.65;13.05;;;4.30;97.60;;;;;;2025166;29;20075;-70
2021/03/01 01:50:41;;;;;;;20.00;13.07;;;4.30;97.50;;;;;;2025051;29;20029;-71
2021/03/01 01:51:43;;;;;;;20.70;13.30;;;4.20;97.60;;;;;;2024864;29;20137;-72
2021/03/01 01:52:44;;;;;;;18.98;11.98;;;4.20;97.80;;;;;;2025691;29;20389;-72
2021/03/01 01:53:44;;;;;;;20.25;13.13;;;4.20;97.80;;;;;;2025777;29;20032;-72
2021/03/01 01:54:45;;;;;;;20.67;11.90;;;4.10;97.80;;;;;;2025599;29;20117;-71
2021/03/01 01:55:46;;;;;;;21.17;13.15;;;4.10;97.80;;;;;;2025546;29;20028;-72
2021/03/01 01:56:49;;;;;;;19.98;12.50;;;4.10;97.90;;;;;;2025120;29;20035;-72
2021/03/01 01:57:50;;;;;;;19.10;12.57;;;4.10;98.00;;;;;;2025418;29;20131;-72
2021/03/01 01:58:51;;;;;;;19.10;12.38;;;4.10;98.00;;;;;;2025445;29;20029;-72
2021/03/01 01:59:51;;;;;;;18.80;12.05;;;4.10;98.10;;;;;;2025036;29;20040;-71
2021/03/01 02:00:52;;;;;;;19.27;12.15;;;4.10;98.10;;;;;;2025518;29;20113;-71
2021/03/01 02:01:55;;;;;;;18.58;11.88;;;4.10;98.20;;;;;;2016935;29;20064;-72
2021/03/01 02:03:08;;;;;;;17.10;11.63;;;4.10;98.30;;;;;;2017345;29;20037;-71
2021/03/01 02:04:27;;;;;;;18.80;12.05;;;4.10;98.20;;;;;;2025273;29;20031;-72
2021/03/01 02:05:29;;;;;;;19.05;11.73;;;4.10;98.10;;;;;;2025475;29;20158;-70
2021/03/01 02:06:48;;;;;;;17.90;11.35;;;4.10;98.10;;;;;;2025080;29;20088;-72
2021/03/01 02:08:19;;;;;;;20.65;12.20;;;4.20;98.00;;;;;;2025381;29;20400;-71
2021/03/01 02:09:40;;;;;;;18.67;11.85;;;4.10;97.90;;;;;;1992482;29;20042;-70
2021/03/01 02:10:50;;;;;;;19.95;12.27;;;4.10;97.90;;;;;;2025094;29;20045;-71
2021/03/01 02:12:02;;;;;;;19.52;11.85;;;4.10;97.90;;;;;;2025546;29;20412;-71
2021/03/01 02:13:17;;;;;;;18.48;11.80;;;4.10;98.10;;;;;;2025225;29;20522;-71
2021/03/01 02:14:26;;;;;;;16.88;11.23;;;4.10;98.10;;;;;;2025131;29;20024;-71
2021/03/01 02:15:53;;;;;;;19.25;12.68;;;4.10;98.00;;;;;;2018243;29;20063;-71
2021/03/01 02:16:55;;;;;;;17.90;11.65;;;4.10;97.70;;;;;;2020304;29;20028;-72
2021/03/01 02:17:55;;;;;;;18.15;11.60;;;4.10;97.70;;;;;;2016923;29;20068;-72
2021/03/01 02:18:56;;;;;;;17.95;11.40;;;4.10;97.80;;;;;;2017127;29;20033;-72
2021/03/01 02:19:57;;;;;;;20.05;12.18;;;4.10;97.80;;;;;;2025028;29;20024;-71
2021/03/01 02:21:10;;;;;;;18.38;12.05;;;4.20;97.60;;;;;;2025427;29;20096;-72
2021/03/01 02:22:11;;;;;;;17.65;11.75;;;4.20;97.60;;;;;;2025385;29;20099;-71
2021/03/01 02:23:13;;;;;;;16.90;11.07;;;4.20;97.40;;;;;;2025404;29;20028;-71
2021/03/01 02:24:17;;;;;;;17.92;11.48;;;4.20;97.60;;;;;;2025439;29;20021;-71
2021/03/01 02:25:22;;;;;;;19.92;11.98;;;4.20;97.40;;;;;;2017056;29;20028;-70
2021/03/01 02:26:34;;;;;;;16.20;10.88;;;4.10;97.50;;;;;;2017366;29;20081;-71
2021/03/01 02:27:40;;;;;;;20.10;12.30;;;4.10;97.50;;;;;;2024965;29;20024;-71
2021/03/01 02:28:49;;;;;;;22.00;12.70;;;4.10;97.70;;;;;;2016983;29;20432;-70
2021/03/01 02:29:54;;;;;;;19.38;11.93;;;4.10;97.90;;;;;;2017672;29;20040;-71
2021/03/01 02:30:57;;;;;;;18.27;11.80;;;4.00;97.90;;;;;;2025423;29;20029;-71
2021/03/01 02:32:01;;;;;;;19.83;12.43;;;4.00;98.00;;;;;;2025374;29;20041;-70
2021/03/01 02:33:08;;;;;;;20.77;12.45;;;4.00;98.10;;;;;;2024662;29;20036;-70
2021/03/01 02:34:10;;;;;;;18.73;11.73;;;4.00;98.20;;;;;;2024665;29;20480;-70
2021/03/01 02:35:13;;;;;;;19.15;12.10;;;3.90;98.40;;;;;;2017904;29;20021;-71
2021/03/01 02:36:23;;;;;;;19.73;12.05;;;4.00;98.40;;;;;;2025499;29;20042;-71
2021/03/01 02:37:25;;;;;;;19.13;11.93;;;4.00;98.40;;;;;;2024935;29;20040;-71
2021/03/01 02:38:29;;;;;;;19.83;12.25;;;4.10;98.30;;;;;;2025407;29;20107;-71
2021/03/01 02:39:32;;;;;;;18.70;11.52;;;4.00;98.30;;;;;;2025102;29;20031;-72
2021/03/01 02:40:35;;;;;;;19.30;11.63;;;4.00;98.20;;;;;;2025679;29;20370;-71
2021/03/01 02:41:38;;;;;;;19.65;11.75;;;4.00;98.20;;;;;;2024833;29;20036;-71
2021/03/01 02:42:42;;;;;;;19.02;11.77;;;4.10;98.10;;;;;;2025047;29;20036;-70
2021/03/01 02:43:43;;;;;;;18.50;11.57;;;4.10;98.10;;;;;;2026473;29;20148;-72
2021/03/01 02:44:45;;;;;;;17.55;11.40;;;4.10;98.00;;;;;;2027040;29;20028;-71
2021/03/01 02:45:46;;;;;;;19.60;11.95;;;4.00;98.00;;;;;;2027687;29;20036;-71
2021/03/01 02:46:48;;;;;;;19.42;12.38;;;4.00;98.00;;;;;;2029035;29;20040;-70
2021/03/01 02:47:49;;;;;;;19.33;12.32;;;4.00;97.90;;;;;;2019463;29;20560;-71
2021/03/01 02:48:50;;;;;;;19.15;12.32;;;4.00;98.30;;;;;;2018780;29;20581;-71
2021/03/01 02:49:54;;;;;;;21.42;12.70;;;3.90;98.00;;;;;;2025903;29;20053;-71
2021/03/01 02:50:57;;;;;;;21.70;12.90;;;3.80;98.10;;;;;;2025629;29;20115;-71
2021/03/01 02:51:58;;;;;;;19.38;12.15;;;3.80;98.50;;;;;;2025386;29;20116;-71
2021/03/01 02:52:59;;;;;;;20.50;12.27;;;3.80;98.50;;;;;;2025321;29;20060;-71
2021/03/01 02:54:02;;;;;;;20.38;12.50;;;3.80;98.50;;;;;;2025697;29;20036;-71
2021/03/01 02:55:04;;;;;;;19.20;11.73;;;3.80;98.60;;;;;;2025267;29;20032;-71
2021/03/01 02:56:05;;;;;;;19.30;11.80;;;3.80;98.60;;;;;;2025358;29;20064;-71
2021/03/01 02:57:07;;;;;;;16.95;11.18;;;3.80;98.70;;;;;;2024954;29;20016;-70
2021/03/01 02:58:09;;;;;;;16.77;10.50;;;3.80;98.70;;;;;;2025299;29;20154;-72
2021/03/01 02:59:10;;;;;;;20.25;12.65;;;3.80;98.80;;;;;;2016604;29;20025;-72
2021/03/01 03:00:12;;;;;;;18.65;11.63;;;3.80;98.50;;;;;;2017077;29;20037;-72
2021/03/01 03:01:13;;;;;;;18.55;11.65;;;3.80;98.60;;;;;;2025568;29;20075;-73
2021/03/01 03:02:15;;;;;;;19.60;12.10;;;3.90;98.40;;;;;;2026984;29;20031;-71
2021/03/01 03:03:16;;;;;;;17.30;11.07;;;3.90;98.40;;;;;;2026901;29;20062;-71
2021/03/01 03:04:20;;;;;;;18.27;11.38;;;3.90;98.30;;;;;;2026891;29;20053;-71
2021/03/01 03:05:22;;;;;;;17.30;10.95;;;3.90;98.20;;;;;;2026790;29;20119;-71
2021/03/01 03:06:24;;;;;;;16.67;10.70;;;3.90;98.10;;;;;;2026725;29;20021;-71
2021/03/01 03:07:25;;;;;;;15.85;9.98;;;3.90;98.10;;;;;;2026323;29;20481;-71
2021/03/01 03:08:30;;;;;;;18.13;11.63;;;3.90;98.20;;;;;;2026107;29;20040;-71
2021/03/01 03:09:31;;;;;;;17.48;11.25;;;4.00;98.20;;;;;;2025288;29;20039;-71
2021/03/01 03:10:32;;;;;;;15.70;10.27;;;3.90;98.00;;;;;;2018269;29;20425;-72
2021/03/01 03:11:34;;;;;;;17.45;11.05;;;3.90;98.00;;;;;;2026698;29;20056;-71
2021/03/01 03:12:37;;;;;;;17.35;10.80;;;3.90;97.80;;;;;;2025924;29;20056;-71
2021/03/01 03:13:39;;;;;;;15.27;10.65;;;3.90;97.90;;;;;;2025963;29;20044;-71
2021/03/01 03:14:41;;;;;;;15.05;9.73;;;4.00;98.00;;;;;;2018247;29;20120;-71
2021/03/01 03:15:44;;;;;;;17.92;10.70;;;3.90;98.00;;;;;;2010781;29;20109;-71
2021/03/01 03:16:48;;;;;;;18.67;11.70;;;3.90;98.00;;;;;;2010325;29;20037;-72
2021/03/01 03:17:50;;;;;;;19.15;11.75;;;3.90;97.90;;;;;;2018739;29;20206;-72
2021/03/01 03:18:54;;;;;;;17.35;10.95;;;3.90;98.10;;;;;;2026576;29;20061;-72
2021/03/01 03:19:54;;;;;;;17.55;11.07;;;3.90;98.30;;;;;;2026236;29;20040;-71
2021/03/01 03:20:58;;;;;;;17.35;10.85;;;3.90;98.20;;;;;;2026699;29;20029;-71
2021/03/01 03:21:58;;;;;;;17.20;10.73;;;3.90;98.20;;;;;;2026688;29;20035;-71
2021/03/01 03:23:00;;;;;;;17.30;10.95;;;3.90;98.20;;;;;;2026544;29;20509;-71
2021/03/01 03:24:07;;;;;;;17.90;10.63;;;3.90;98.10;;;;;;2026564;29;20077;-71
2021/03/01 03:25:10;;;;;;;16.48;10.43;;;3.90;98.10;;;;;;2026581;29;20033;-71
2021/03/01 03:26:13;;;;;;;16.30;10.43;;;3.90;98.10;;;;;;2026653;29;20089;-71
2021/03/01 03:27:13;;;;;;;18.50;11.00;;;3.90;98.10;;;;;;2025417;29;20037;-71
2021/03/01 03:28:14;;;;;;;16.33;10.55;;;4.00;98.20;;;;;;2018166;29;20029;-71
2021/03/01 03:29:15;;;;;;;17.65;10.43;;;4.00;98.00;;;;;;2017961;29;20065;-71
2021/03/01 03:30:21;;;;;;;17.77;10.95;;;3.90;98.10;;;;;;2025766;29;20072;-71
2021/03/01 03:31:22;;;;;;;16.40;10.55;;;3.90;98.10;;;;;;2018136;29;20070;-74
2021/03/01 03:32:22;;;;;;;16.67;10.80;;;3.90;98.20;;;;;;2018079;29;20029;-71
2021/03/01 03:33:23;;;;;;;16.15;10.48;;;3.90;98.30;;;;;;2026462;29;20032;-71
2021/03/01 03:34:24;;;;;;;17.02;10.52;;;3.90;98.20;;;;;;2026489;29;20041;-71
2021/03/01 03:35:26;;;;;;;17.75;10.68;;;3.90;98.20;;;;;;2026441;29;20039;-71
2021/03/01 03:36:40;;;;;;;16.90;10.70;;;4.00;98.30;;;;;;2026023;29;20057;-71
2021/03/01 03:38:19;;;;;;;17.27;10.68;;;4.00;98.40;;;;;;2026439;29;20032;-71
2021/03/01 03:39:21;;;;;;;17.58;10.60;;;4.00;98.40;;;;;;2026114;29;20671;-71
2021/03/01 03:40:25;;;;;;;16.73;10.68;;;4.00;98.50;;;;;;2026340;29;20449;-71
2021/03/01 03:41:28;;;;;;;16.48;10.88;;;4.00;98.40;;;;;;2026403;29;20043;-71
2021/03/01 03:42:29;;;;;;;16.00;10.63;;;4.00;98.40;;;;;;2026417;29;20060;-71
2021/03/01 03:43:32;;;;;;;17.10;10.82;;;4.00;98.30;;;;;;2026400;29;20119;-71
2021/03/01 03:44:37;;;;;;;17.38;10.98;;;4.00;98.30;;;;;;2025972;29;20033;-71
2021/03/01 03:45:38;;;;;;;17.70;11.55;;;4.00;98.30;;;;;;2026143;29;20060;-71
2021/03/01 03:46:40;;;;;;;19.42;12.10;;;4.00;98.20;;;;;;2027196;29;20425;-71
2021/03/01 03:47:48;;;;;;;16.48;11.27;;;4.00;98.00;;;;;;2027162;29;20072;-71
2021/03/01 03:48:51;;;;;;;19.83;11.98;;;4.00;98.20;;;;;;2028419;29;20033;-71
2021/03/01 03:49:54;;;;;;;17.13;11.25;;;4.00;98.10;;;;;;2027801;29;20063;-71
2021/03/01 03:50:58;;;;;;;18.88;11.70;;;4.00;98.10;;;;;;2028654;29;20021;-71
2021/03/01 03:52:00;;;;;;;18.92;11.93;;;4.00;98.00;;;;;;2027175;29;20096;-71
2021/03/01 03:53:08;;;;;;;17.33;11.27;;;4.00;98.00;;;;;;2020322;29;20853;-71
2021/03/01 03:54:16;;;;;;;17.05;10.60;;;4.00;98.00;;;;;;2028852;29;20101;-72
2021/03/01 03:55:19;;;;;;;18.30;11.55;;;4.00;97.80;;;;;;2028226;29;20109;-70
2021/03/01 03:56:26;;;;;;;18.48;11.85;;;4.00;97.80;;;;;;2027662;29;20024;-71
2021/03/01 03:57:33;;;;;;;17.90;11.38;;;4.00;97.90;;;;;;2018919;29;20517;-70
2021/03/01 03:58:39;;;;;;;17.63;11.23;;;4.00;97.80;;;;;;2019207;29;20437;-71
2021/03/01 03:59:41;;;;;;;17.15;10.95;;;4.00;97.60;;;;;;2026042;29;20032;-72
2021/03/01 04:00:42;;;;;;;17.13;11.05;;;4.00;97.60;;;;;;2028006;29;20021;-72
2021/03/01 04:01:43;;;;;;;17.10;11.02;;;4.00;97.60;;;;;;2027105;29;20140;-72
2021/03/01 04:02:45;;;;;;;19.08;11.65;;;4.00;97.60;;;;;;2019386;29;20036;-70
2021/03/01 04:03:47;;;;;;;18.60;11.48;;;4.00;97.60;;;;;;2019297;29;20092;-71
2021/03/01 04:04:49;;;;;;;15.88;10.93;;;4.00;97.50;;;;;;2026951;29;20032;-70
2021/03/01 04:05:52;;;;;;;18.02;11.60;;;4.10;97.40;;;;;;2018466;29;20029;-71
2021/03/01 04:06:54;;;;;;;17.50;11.00;;;4.00;97.10;;;;;;2011403;29;20037;-71
2021/03/01 04:07:56;;;;;;;15.95;10.05;;;4.00;97.20;;;;;;2026515;29;20164;-70
2021/03/01 04:08:58;;;;;;;17.25;11.48;;;4.00;97.30;;;;;;2026347;29;20089;-70
2021/03/01 04:10:01;;;;;;;18.60;11.15;;;4.00;97.30;;;;;;2025967;29;20173;-71
2021/03/01 04:11:02;;;;;;;15.80;10.57;;;4.00;97.20;;;;;;2026375;29;20084;-70
2021/03/01 04:12:05;;;;;;;16.35;10.55;;;4.00;97.10;;;;;;2026210;29;20508;-71
2021/03/01 04:13:08;;;;;;;16.25;10.48;;;4.00;97.10;;;;;;2025245;29;20119;-71
2021/03/01 04:14:14;;;;;;;15.50;10.15;;;4.00;97.20;;;;;;2026390;29;20108;-71
2021/03/01 04:15:17;;;;;;;16.10;10.73;;;4.00;97.30;;;;;;2017973;29;20442;-71
2021/03/01 04:16:20;;;;;;;16.70;10.05;;;4.00;97.30;;;;;;2018173;29;20431;-71
2021/03/01 04:17:21;;;;;;;16.77;10.40;;;4.00;97.40;;;;;;2025212;29;20027;-71
2021/03/01 04:18:30;;;;;;;15.43;10.27;;;4.00;97.40;;;;;;2026356;29;20136;-71
2021/03/01 04:19:32;;;;;;;15.82;10.20;;;4.00;97.50;;;;;;2025506;29;20021;-71
2021/03/01 04:20:34;;;;;;;15.80;10.43;;;4.00;97.50;;;;;;2025805;29;20398;-70
2021/03/01 04:21:36;;;;;;;17.67;11.23;;;3.90;97.40;;;;;;2018179;29;20032;-71
2021/03/01 04:22:39;;;;;;;15.75;10.63;;;4.00;97.20;;;;;;2018188;29;20672;-70
2021/03/01 04:23:43;;;;;;;15.82;10.52;;;3.90;97.10;;;;;;2025863;29;20111;-71
2021/03/01 04:24:46;;;;;;;16.13;10.25;;;3.90;97.30;;;;;;2026349;29;20052;-71
2021/03/01 04:25:47;;;;;;;15.43;10.30;;;3.90;97.20;;;;;;2026404;29;20028;-71
2021/03/01 04:26:49;;;;;;;15.10;10.00;;;4.00;97.10;;;;;;2025660;29;20066;-70
2021/03/01 04:27:51;;;;;;;15.68;9.70;;;4.00;96.80;;;;;;2026354;29;20024;-71
2021/03/01 04:28:52;;;;;;;13.88;9.35;;;4.00;96.50;;;;;;2026290;29;20041;-70
2021/03/01 04:29:54;;;;;;;14.68;9.80;;;4.00;96.60;;;;;;2025723;29;20041;-70
2021/03/01 04:30:58;;;;;;;16.27;10.27;;;4.00;96.70;;;;;;2025972;29;20417;-71
2021/03/01 04:31:59;;;;;;;16.60;10.85;;;4.00;96.80;;;;;;2026076;29;20040;-70
2021/03/01 04:33:01;;;;;;;14.27;10.10;;;4.00;96.80;;;;;;2026191;29;20044;-71
2021/03/01 04:34:04;;;;;;;15.07;10.25;;;4.00;96.60;;;;;;2026049;29;20032;-71
2021/03/01 04:35:07;;;;;;;14.55;9.75;;;4.00;96.40;;;;;;2026220;29;20084;-70
2021/03/01 04:36:08;;;;;;;14.90;9.90;;;4.10;96.20;;;;;;2025406;29;20021;-70
2021/03/01 04:37:09;;;;;;;14.35;9.93;;;4.20;96.00;;;;;;2024974;29;20100;-70
2021/03/01 04:38:10;;;;;;;13.13;9.13;;;4.10;95.70;;;;;;2017680;29;20041;-70
2021/03/01 04:39:11;;;;;;;14.30;9.75;;;4.00;95.80;;;;;;2025855;29;20028;-70
2021/03/01 04:40:14;;;;;;;12.35;9.13;;;4.00;95.90;;;;;;2026221;29;20029;-71
2021/03/01 04:41:16;;;;;;;12.85;8.48;;;4.00;96.00;;;;;;2026132;29;20140;-70
2021/03/01 04:42:17;;;;;;;14.27;9.10;;;4.00;96.00;;;;;;2025921;29;20116;-70
2021/03/01 04:43:20;;;;;;;14.70;9.50;;;4.00;95.90;;;;;;2026117;29;20088;-70
2021/03/01 04:44:22;;;;;;;13.50;9.13;;;4.00;96.00;;;;;;2026121;29;20024;-70
2021/03/01 04:45:23;;;;;;;15.18;9.45;;;4.00;96.10;;;;;;2025377;29;20025;-70
2021/03/01 04:46:24;;;;;;;13.82;8.75;;;4.00;96.00;;;;;;2025432;29;20116;-70
2021/03/01 04:47:30;;;;;;;12.52;8.30;;;4.00;96.40;;;;;;2024967;29;20119;-70
2021/03/01 04:48:31;;;;;;;13.50;9.30;;;3.90;96.20;;;;;;2025435;29;20035;-70
2021/03/01 04:49:33;;;;;;;13.73;9.25;;;4.00;96.30;;;;;;2025526;29;20032;-70
2021/03/01 04:50:34;;;;;;;13.63;9.48;;;4.00;96.10;;;;;;2025960;29;20488;-70
2021/03/01 04:51:35;;;;;;;11.70;8.43;;;4.00;96.10;;;;;;2026165;29;20048;-70
2021/03/01 04:52:37;;;;;;;12.30;8.65;;;3.90;96.10;;;;;;2025973;29;20548;-70
2021/03/01 04:53:39;;;;;;;12.93;8.82;;;3.90;96.10;;;;;;2026195;29;20033;-71
2021/03/01 04:54:41;;;;;;;12.35;8.73;;;3.90;96.20;;;;;;2026180;29;20027;-70
2021/03/01 04:55:43;;;;;;;12.02;8.55;;;3.90;96.30;;;;;;2026024;29;20040;-71
2021/03/01 04:56:45;;;;;;;12.93;8.40;;;3.90;96.30;;;;;;2026581;29;20021;-70
2021/03/01 04:57:46;;;;;;;13.20;8.73;;;3.90;96.40;;;;;;2025348;29;20767;-70
2021/03/01 04:58:47;;;;;;;13.50;8.68;;;3.90;96.30;;;;;;2025451;29;20032;-70
2021/03/01 04:59:48;;;;;;;13.50;8.32;;;3.90;96.30;;;;;;2025581;29;20036;-70
2021/03/01 05:00:52;;;;;;;12.73;8.40;;;3.90;96.40;;;;;;2025421;29;20120;-70
2021/03/01 05:01:53;;;;;;;11.85;7.97;;;3.90;96.30;;;;;;2025542;29;20033;-70
2021/03/01 05:02:54;;;;;;;11.27;7.75;;;3.90;96.20;;;;;;2025497;29;20025;-70
2021/03/01 05:03:56;;;;;;;12.05;7.72;;;3.90;96.10;;;;;;2025329;29;20088;-72
2021/03/01 05:05:00;;;;;;;11.05;7.75;;;3.90;96.00;;;;;;2025956;29;20034;-72
2021/03/01 05:06:01;;;;;;;10.57;7.90;;;3.90;96.00;;;;;;2025881;29;20374;-70
2021/03/01 05:07:04;;;;;;;11.63;7.90;;;3.90;96.00;;;;;;2025430;29;20032;-70
2021/03/01 05:08:10;;;;;;;12.15;8.50;;;3.80;96.10;;;;;;2025051;29;20127;-70
2021/03/01 05:09:13;;;;;;;12.68;7.95;;;3.90;96.10;;;;;;2024970;29;20468;-70
2021/03/01 05:10:14;;;;;;;11.75;7.95;;;3.90;95.80;;;;;;2025700;29;20041;-70
2021/03/01 05:11:37;;;;;;;11.05;7.90;;;3.90;95.80;;;;;;2025968;29;20029;-70
2021/03/01 05:12:38;;;;;;;11.20;7.93;;;4.00;95.90;;;;;;2025810;29;20231;-70
2021/03/01 05:13:38;;;;;;;11.50;7.50;;;3.90;95.90;;;;;;2025863;29;20043;-70
2021/03/01 05:14:39;;;;;;;12.07;8.10;;;3.90;95.90;;;;;;2025900;29;20035;-70
2021/03/01 05:15:39;;;;;;;12.20;7.60;;;3.90;96.00;;;;;;2025858;29;20029;-70
2021/03/01 05:16:41;;;;;;;10.30;7.00;;;3.90;95.90;;;;;;2024689;29;20060;-70
2021/03/01 05:17:41;;;;;;;10.98;7.35;;;3.90;96.30;;;;;;2025347;29;20595;-71
2021/03/01 05:18:42;;;;;;;10.70;7.18;;;3.90;95.80;;;;;;2025327;29;20060;-70
2021/03/01 05:19:42;;;;;;;10.75;7.55;;;3.90;95.80;;;;;;2025013;29;20563;-70
2021/03/01 05:20:43;;;;;;;10.57;7.28;;;3.90;95.80;;;;;;2025496;29;20546;-70
2021/03/01 05:21:44;;;;;;;10.95;7.40;;;3.90;95.60;;;;;;2025677;29;20103;-70
2021/03/01 05:22:44;;;;;;;10.60;7.28;;;3.80;95.50;;;;;;2026327;29;20056;-70